INDIA METEOROLOGICAL DEPARTMENT, R.M.C. NEW DELHI
Dated:24 - 5 - 2017
METARS OF ALTERNATE AIRPORTS
Delhi      
VIDP 240600Z 13007KT 3000 HZ FEW040 39/18 Q1005 NOSIG=
Amritsar   
VIAR 240600Z VRB02KT 5000 HZ NSC 36/17 Q1006 NOSIG=
Lucknow    
VILK 240600Z 27004KT 3000 HZ NSC 41/19 Q1003 NOSIG=
Jaipur     
VIJP 240600Z 25007KT 4000 HZ NSC 38/14 Q1007 NOSIG=
Ahmedabad  
VAAH 240530Z 28008KT 5000 FU NSC 35/22 Q1007 NOSIG=
Udaipur    
VAUD 240600Z 18008KT 5000 HZ NSC 39/16 Q1008 NOSIG=
Mumbai     
VABB 240600Z 26011KT 5000 HZ FEW025 33/26 Q1008 NOSIG=